Airfield :
LOGIN :

Register | Disclaimer

   EN    FR    IT 

 










Legend :    VFR   Marginal VFR   IFR   Intensive IFR   Very Intensive IFR
Visi :
Ceiling :
>= 8 km
>= 3000ft
5 to 8 km
1000 to 3000 ft
1500m to 5 km
500 to 1000 ft
800 to 1500m
200 to 500 ft
< 800m
< 200 ft
Symbols :   Thunderstorms  Fog  Heavy snow  Heavy precipitations  Wind > 20 kt
SIGMETs :     Misc.  Thunderstorms  Icing  Turbulence  Mountain Waves  Volcanic Ashes






- Airport Elevation : 327 ft
- IATA code : BHX


EGBB - Birmingham

CURRENT METAR :
  • 271750Z 31009KT 270V330 9999 FEW038 06/M02 Q1009

EXPIRED METARs :
  • 271720Z 31015KT 9999 FEW037 06/M02 Q1008
  • 271650Z 31013KT 9999 FEW036 06/M03 Q1008
  • 271620Z 31018KT 9999 SCT045 06/M03 Q1007
  • 271550Z 32020KT 9999 SCT041 07/M03 Q1006
  • 271520Z 32017KT 9999 SCT039 07/M03 Q1006

TAF TAF EGBB
Valid from the 27 at 18:00 until the 28 at 18:00 UTC


271703Z 2718/2818 30012KT 9999 SCT030
BECMG 2719/2722 24006KT
BECMG 2807/2810 16015G25KT BKN012
TEMPO 2808/2818 4000 RA BKN006
BECMG 2813/2816 22015G25KT
ATIS : +44 121 780 0910



MET'MAP, your aeronautical weather chart ! - Copyright ORBIFLY December 2007 - Disclaimer

ORBIFLY MET'MAP TEAM :

Programming & Development : Alexandra Zaïnal
Concept & original design : Baudouin d'Aumeries
Assistance for programming : Marc-Olivier Méhu
Technical & hardware support : Manuel Goepfert

Contact : metmap@orbifly.com




SOURCES & CREDITS :

   NOAA